Domov               UVHVVR             MKGP            O straneh              
ZDRAVSTVENO VARSTVO RASTLIN
  MREŽA AGROMET. POSTAJ
 ► PROGNOSTIČNA OBVESTILA
AGROMETEOROLOŠKI PODATKI -
ARSO
OBVLADOVANJE TVEGANJ ZARADI
NEUGODNIH VREMENSKIH RAZMER
  ► NARAVNE NESREČE
  ► SUŠA/MOČA
  ► NAMAKANJE
  ► ŽLED (gozdarstvo)
KARTOGRAFSKI PRIKAZI
SPLETNE POVEZAVE
PROJEKTI IN PUBLIKACIJE

AGROMETEOROLOŠKA MREŽA: VREMENSKE POSTAJE IN FENOLOŠKA OPAZOVANJA

Pregled podatkov za lokacijo Slap, meteorološka postaja 49193

Pregled senzorjev na lokaciji

ID Ime Zadnja
vrednost
Datum
zadnje
spremembe
Tip
senzorja
3687 Temperatura 2 m ( °C) 15,99 °C 19.8.2017 05:00 50YA
3688 Relativna vlaga 2 m (% RH) 95 % RH 19.8.2017 05:00 50YA
3689 Omočenost lista (U) 0 U 19.8.2017 05:00 A730WET
3690 Sončno sevanje (W/m2) 138,03 W/m2 19.8.2017 05:00 Pyranometer SP-Lite
3691 Temperatura tal ( °C) 24,31 °C 19.8.2017 05:00 99TG411E
3692 Hitrost vetra (km/h) 0,54 km/h 19.8.2017 05:00 566.2S-176 (200km/h)
3693 Smer vetra (°) 152,95 ° 19.8.2017 05:00 566.2S-130
3694 Padavine 0.2 mm (mm) 0 mm 19.8.2017 05:00 Rain-O-Matic

Pregled podatkov zadnjih 24 ur

Zap.
št.
Datum in čas Slap
Hitrost
vetra
Omočenost
lista
Padavine
0.2
mm
Relativna
vlaga
2
m
Smer
vetra
Sončno
sevanje
Temperatura
2
m
Temperatura
tal
0 19.8.2017 04:00 0,54 0 0 95 152,95 138,03 15,99 24,31
1 19.8.2017 03:30 0,15 0 0 92,14 278,73 137,67 16,49 24,39
2 19.8.2017 03:00 0,15 0 0 92,74 133,66 113,07 16,44 24,44
3 19.8.2017 02:30 0,15 0 0 91,77 132,91 105,1 16,2 24,48
4 19.8.2017 02:00 0,15 0 0 91,08 215,42 92,13 16,27 24,55
5 19.8.2017 01:30 0,15 0 0 93,05 147,33 195,9 16,15 24,6
6 19.8.2017 01:00 0,15 0 0 91,59 305,02 109,62 16,15 24,64
7 19.8.2017 00:30 0,15 0 0 92,3 198,26 16,31 24,7
8 19.8.2017 00:00 0,15 0 0 92,23 139,31 16,74 24,74
9 18.8.2017 23:30 0,15 0 0 93,11 66,85 16,96 24,77
10 18.8.2017 23:00 0,15 0 0 90,12 277,25 17,45 24,8
11 18.8.2017 22:30 0,15 0 0 90,06 135,68 17,84 24,84
12 18.8.2017 22:00 0,15 0 0 87,46 198,68 18,35 24,85
13 18.8.2017 21:30 0,15 0 0 83,9 227,62 19,18 24,86
14 18.8.2017 21:00 0,15 0 0 78,68 216,81 20,24 24,87
15 18.8.2017 20:30 0,15 0 0 73,39 217,64 21,38 24,87
16 18.8.2017 20:00 0,15 0 0 70,17 244,71 23,05 25,09
17 18.8.2017 19:30 0,15 0 0 62,53 190,4 26,6 25,45
18 18.8.2017 19:00 0,35 0 0 57,43 205,58 29,4 25,6
19 18.8.2017 18:30 1,51 0 0 39,17 209,4 33,22 25,67
20 18.8.2017 18:00 3,38 0 0 36,07 202,52 34,02 25,69
21 18.8.2017 17:30 7,09 0 0 34,62 245,13 34,5 25,64
22 18.8.2017 17:00 9,05 0 0 33,42 289,51 35,25 25,65
23 18.8.2017 16:30 9,45 0 0 33,71 257,56 35,86 25,57
24 18.8.2017 16:00 9,95 0 0 35,28 318,41 36,56 25,47
25 18.8.2017 15:30 8,1 0 0 35,42 336,42 37,16 25,5
26 18.8.2017 15:00 7,04 0 0 33,55 352,28 37,51 25,47
27 18.8.2017 14:30 7,23 0 0 31,93 332,63 37,33 25,33
28 18.8.2017 14:00 1,9 0 0 29,06 235,4 37,59 25,31
29 18.8.2017 13:30 0,15 0 0 29,67 146,57 37,53 25,3
30 18.8.2017 13:00 0,15 0 0 32,67 1,91 37,05 25,21
31 18.8.2017 12:30 0,15 0 0 32,34 354,94 36,27 25,08
32 18.8.2017 12:00 0,15 0 0 32,52 208,68 36,16 25,18
33 18.8.2017 11:30 0,15 0 0 31,39 75,21 36 25,22
34 18.8.2017 11:00 0,15 0 0 33,08 324,1 35,66 25,18
35 18.8.2017 10:30 0,15 0 0 35,59 325,87 35,18 25,24
36 18.8.2017 10:00 0,15 0 0 39,19 142,34 33,92 25,21
37 18.8.2017 09:30 0,15 0 0 42,72 170,39 32,83 25,27
38 18.8.2017 09:00 0,15 0 0 48,73 165,46 31,17 25,15
39 18.8.2017 08:30 0,15 0 0 56 197,5 29,41 25,11
40 18.8.2017 08:00 2,62 0 0 65,68 146,71 27,14 24,99
41 18.8.2017 07:30 2,95 0 0 69,88 157,78 25,53 24,89
42 18.8.2017 07:00 2,56 0 0 82,38 86,1 22,71 24,77
43 18.8.2017 06:30 0,84 0 0 87,68 247,82 20,99 24,74
44 18.8.2017 06:00 0,93 0 0 94,85 152,23 19,46 24,75
© 2011 Ministrstvo za kmetijstvo, gozdarstvo in prehrano. Vse pravice pridržane.